Saint Germain, WI

8:55 AM CST on February 06, 2016 (GMT -0600)
PlumLake- East Shore | | Change Station
CLOSE
Current Station
Personal Weather Station
Location: Sayner, WI
Elevation: 1670 ft
Nearby Weather Stations

Elev 1670 ft 46.00 °N, 89.53 °W | Updated 22 seconds ago

Overcast
Overcast
21.6 °F
Feels Like 17 °F
N
3.4
Wind Variable Wind from WSW
Gusts 4.9 mph

Today
High -- | Low -- °F
--% Chance of Precip.
Yesterday
High -- | Low -- °F
Precip. -- in
Pressure 30.03 in
Visibility 7.0 miles
Clouds Overcast 900 ft
Windchill 17 °F
Dew Point 14 °F
Humidity 74%
Rainfall 0.00 in
Snow Depth Not available.
7:14 AM 5:10 PM
Waning Crescent, 5% visible
METAR KEGV 061430Z AUTO 26008KT 7SM OVC009 M06/M07 A3003 RMK AO2 T10601072
Pressure 30.03 in
Visibility 7.0 miles
Clouds Overcast 900 ft
Windchill 17 °F
Dew Point 14 °F
Humidity 74%
Rainfall 0.00 in
Snow Depth Not available.
7:14 AM 5:10 PM
Waning Crescent, 5% visible
METAR KEGV 061430Z AUTO 26008KT 7SM OVC009 M06/M07 A3003 RMK AO2 T10601072

10-Day Weather Forecast

Almanac

Astronomy

Feb. 06, 2016 Rise Set
Actual Time
Civil Twilight
Nautical Twilight
Astronomical Twilight
Moon
Length of Visible Light
Length of Day
Tomorrow will be .
, % of the Moon is Illuminated

Today's Extremes

State Highs State Lows

Community

WunderPhotos

Upload Photos

1,890,983 photos uploaded!

WunderBlog® & News

Nearby

Air Quality

  Air Quality AQ Index Pollutant
Not available.

Snow Depth

Station Depth Elevation

Earthquake Activity

City Distance Mag. Time & Date
Minimum magnitude displayed is 2.5.

Coastal Water Temperatures

Place Temperature

Stations

Nearby Weather Stations

Station Location Temp. Windchill Dew Point Humidity Wind Precip. Elev Updated Type
                   

Watches & Warnings

There are currently no watches in effect.